TAF Text Data
IDs:
Format:
Raw Decoded Include METAR

Data at: 1749 UTC 23 Jan 2019

KCNY 231653Z AUTO 14003KT 10SM OVC085 M03/M08 A3029 RMK AO2 SLP291 T10331078

KCNY 231732Z 2318/2418 VRB04KT P6SM OVC090
  FM232100 30004KT P6SM SCT120 SCT200
  FM240100 32004KT P6SM SCT100 BKN200
  FM240300 VRB03KT P6SM SCT090 BKN140
  FM240700 VRB03KT P6SM SCT070 BKN140